Time;durP1;ratioP1;P1;durP2;ratioP2;P2;SDS_P1;SDS_P2;PMS_P1;PMS_P2;Temp;Humidity;BMP_temperature;BMP_pressure;BME280_temperature;BME280_humidity;BME280_pressure;Samples;Min_cycle;Max_cycle;Signal;HPM_P1;HPM_P2
2021/12/20 00:02:12;;;;;;;;;26.67;24.67;;;;;7.17;72.42;102294.44;4976995;28;45423;-65
2021/12/20 00:04:39;;;;;;;;;32.67;28.33;;;;;7.15;71.61;102280.44;4978539;28;45558;-66
2021/12/20 00:07:04;;;;;;;;;32.33;29.00;;;;;7.11;71.15;102278.06;4978654;28;45475;-65
2021/12/20 00:09:30;;;;;;;;;21.00;18.33;;;;;6.77;71.31;102232.28;4992286;28;48425;-65
2021/12/20 00:11:55;;;;;;;;;27.00;27.00;;;;;7.01;72.42;102277.72;4977945;28;45456;-64
2021/12/20 00:14:21;;;;;;;;;31.67;28.67;;;;;6.67;72.21;102224.03;4978517;28;45316;-64
2021/12/20 00:16:46;;;;;;;;;32.00;31.00;;;;;6.92;72.64;102283.50;4978514;28;45379;-65
2021/12/20 00:19:11;;;;;;;;;33.67;30.67;;;;;6.90;72.34;102274.78;4991792;28;46494;-65
2021/12/20 00:21:38;;;;;;;;;29.33;27.00;;;;;6.99;72.86;102285.72;4997621;28;45236;-64
2021/12/20 00:24:04;;;;;;;;;32.00;30.00;;;;;6.96;72.71;102285.88;4998025;28;45370;-63
2021/12/20 00:26:30;;;;;;;;;25.67;24.00;;;;;6.93;72.97;102280.75;4997949;28;45550;-65
2021/12/20 00:28:55;;;;;;;;;38.33;31.00;;;;;6.82;72.95;102275.22;4997288;28;46532;-65
2021/12/20 00:31:21;;;;;;;;;34.67;24.00;;;;;6.70;73.05;102274.06;4997537;28;45423;-65
2021/12/20 00:33:46;;;;;;;;;30.00;23.00;;;;;6.84;73.83;102281.28;4997778;28;45572;-65
2021/12/20 00:36:20;;;;;;;;;32.33;28.00;;;;;6.85;73.74;102277.69;4997784;28;45387;-65
2021/12/20 00:41:29;;;;;;;;;23.67;22.33;;;;;6.79;73.73;102272.72;4977697;28;45449;-66
2021/12/20 00:43:55;;;;;;;;;30.67;27.33;;;;;6.91;73.55;102285.28;4977797;28;45400;-65
2021/12/20 00:46:20;;;;;;;;;32.67;27.33;;;;;6.75;72.91;102244.75;4977958;28;45372;-67
2021/12/20 00:48:45;;;;;;;;;29.00;28.00;;;;;6.62;73.32;102206.72;4977734;28;45813;-65
2021/12/20 00:51:11;;;;;;;;;27.33;25.00;;;;;7.09;72.28;102269.34;4976274;28;45475;-65
2021/12/20 00:53:36;;;;;;;;;28.67;25.00;;;;;7.00;71.82;102268.06;4977915;28;45249;-65
2021/12/20 00:56:02;;;;;;;;;24.67;24.00;;;;;7.00;72.17;102276.00;4976613;28;45354;-65
2021/12/20 00:58:28;;;;;;;;;17.67;15.33;;;;;6.85;71.91;102248.63;4976073;28;48044;-65
2021/12/20 01:00:54;;;;;;;;;28.00;26.00;;;;;7.06;72.19;102275.66;4977818;28;45474;-64
2021/12/20 01:03:21;;;;;;;;;23.00;21.00;;;;;6.97;72.60;102263.78;4977537;28;45425;-65
2021/12/20 01:05:47;;;;;;;;;25.33;22.33;;;;;6.70;72.34;102208.00;4977966;28;45514;-65
2021/12/20 01:08:13;;;;;;;;;20.00;15.67;;;;;6.86;72.04;102215.09;4980251;28;45736;-65
2021/12/20 01:10:48;;;;;;;;;28.33;24.67;;;;;7.21;71.73;102258.13;4996923;28;45441;-65
2021/12/20 01:13:16;;;;;;;;;28.33;26.00;;;;;7.17;71.43;102253.91;4997036;28;46549;-64
2021/12/20 01:15:47;;;;;;;;;27.00;21.67;;;;;6.94;71.96;102229.59;4997047;28;45391;-65
2021/12/20 01:18:13;;;;;;;;;29.67;25.00;;;;;6.96;72.09;102262.09;4995327;28;47957;-65
2021/12/20 01:20:41;;;;;;;;;19.00;14.00;;;;;6.66;72.99;102208.25;4995111;28;45314;-65
2021/12/20 01:23:07;;;;;;;;;29.67;25.00;;;;;6.47;72.49;102170.53;4997175;28;45422;-64
2021/12/20 01:25:32;;;;;;;;;23.33;21.67;;;;;6.90;72.13;102237.78;4997179;28;45562;-64
2021/12/20 01:27:58;;;;;;;;;31.00;25.67;;;;;6.99;72.48;102246.03;4996960;28;46742;-65
2021/12/20 01:30:25;;;;;;;;;27.33;25.33;;;;;7.04;72.26;102244.97;4995342;28;45522;-65
2021/12/20 01:32:52;;;;;;;;;30.67;27.00;;;;;6.97;72.79;102239.13;4995645;28;45385;-64
2021/12/20 01:35:19;;;;;;;;;35.00;28.67;;;;;6.84;72.23;102217.84;4995708;28;45620;-65
2021/12/20 01:37:45;;;;;;;;;35.00;25.00;;;;;6.85;73.17;102235.41;4996598;28;45740;-65
2021/12/20 01:40:12;;;;;;;;;35.00;30.67;;;;;6.91;72.47;102253.56;4977589;28;45385;-66
2021/12/20 01:42:39;;;;;;;;;27.33;21.33;;;;;6.71;73.07;102222.06;4977041;28;45320;-66
2021/12/20 01:45:10;;;;;;;;;27.33;26.33;;;;;6.31;72.85;102155.50;4976996;28;45582;-65
2021/12/20 01:47:38;;;;;;;;;27.67;26.67;;;;;6.79;73.51;102235.72;4976771;28;46847;-64
2021/12/20 01:53:00;;;;;;;;;32.67;30.67;;;;;6.74;72.59;102200.75;4980570;28;45528;-65
2021/12/20 01:55:25;;;;;;;;;31.33;28.67;;;;;6.92;73.00;102236.75;4992053;28;45514;-64
2021/12/20 01:57:51;;;;;;;;;38.00;32.33;;;;;6.95;72.82;102231.28;4976835;28;45634;-65
2021/12/20 02:00:22;;;;;;;;;31.67;30.33;;;;;7.11;72.14;102255.09;4976858;28;45376;-64
2021/12/20 02:02:53;;;;;;;;;17.67;17.67;;;;;7.20;71.75;102240.50;4991990;28;45341;-65
2021/12/20 02:05:28;;;;;;;;;29.33;26.00;;;;;6.95;71.78;102196.91;4976822;28;45404;-64
2021/12/20 02:08:13;;;;;;;;;30.33;28.67;;;;;7.28;70.89;102233.00;4976837;28;47319;-64
2021/12/20 02:10:39;;;;;;;;;28.00;25.33;;;;;7.20;71.30;102214.91;4976587;28;45478;-64
2021/12/20 02:13:05;;;;;;;;;36.00;32.00;;;;;6.91;71.17;102176.03;4975510;28;45433;-65
2021/12/20 02:15:31;;;;;;;;;30.33;26.67;;;;;7.04;71.68;102214.09;4976871;28;45270;-65
2021/12/20 02:17:56;;;;;;;;;32.00;28.67;;;;;7.03;71.63;102200.94;4976343;28;45388;-65
2021/12/20 02:20:30;;;;;;;;;37.00;32.33;;;;;6.75;70.93;102140.81;4976462;28;45298;-65
2021/12/20 02:22:57;;;;;;;;;43.00;32.67;;;;;7.17;71.21;102215.09;4976811;28;45704;-64
2021/12/20 02:25:27;;;;;;;;;31.00;26.00;;;;;7.35;71.12;102234.38;4976675;28;45580;-65
2021/12/20 02:27:53;;;;;;;;;19.33;18.00;;;;;6.92;70.57;102154.78;4991330;28;46630;-65
2021/12/20 02:38:19;;;;;;;;;47.00;36.33;;;;;7.17;71.31;102230.97;4979529;28;45537;-65
2021/12/20 02:40:46;;;;;;;;;47.00;37.67;;;;;7.03;70.91;102190.38;4978132;28;45556;-66
2021/12/20 02:43:14;;;;;;;;;40.67;35.00;;;;;7.15;71.11;102222.25;4979622;28;45503;-64
2021/12/20 02:45:40;;;;;;;;;40.67;36.00;;;;;7.00;71.36;102186.94;4979336;28;45275;-66
2021/12/20 02:48:07;;;;;;;;;39.33;33.67;;;;;7.42;70.72;102230.44;4979205;28;47140;-65
2021/12/20 02:50:33;;;;;;;;;48.33;38.00;;;;;7.39;70.34;102203.28;4979206;28;45365;-64
2021/12/20 02:52:58;;;;;;;;;44.33;38.00;;;;;7.20;69.79;102162.00;4979466;28;45329;-65
2021/12/20 02:55:23;;;;;;;;;35.00;33.67;;;;;7.36;70.13;102191.09;4979501;28;45349;-64
2021/12/20 02:57:49;;;;;;;;;42.67;37.00;;;;;7.56;69.93;102214.63;4979066;28;45494;-64
2021/12/20 03:00:15;;;;;;;;;44.00;34.00;;;;;6.98;69.84;102151.78;4979357;28;45539;-64
2021/12/20 03:02:41;;;;;;;;;45.33;36.00;;;;;7.34;70.64;102216.78;4990924;28;45436;-65
2021/12/20 03:05:07;;;;;;;;;33.00;32.67;;;;;7.23;70.85;102209.47;4999117;28;45324;-63
2021/12/20 03:07:41;;;;;;;;;45.00;36.00;;;;;6.85;70.37;102134.09;4997724;28;48381;-66
2021/12/20 03:10:08;;;;;;;;;43.67;36.00;;;;;7.20;70.35;102200.84;4997236;28;46145;-65
2021/12/20 03:12:34;;;;;;;;;45.33;37.00;;;;;7.22;71.25;102206.91;4998805;28;45299;-65
2021/12/20 03:15:08;;;;;;;;;46.00;37.33;;;;;7.21;70.74;102203.41;4997487;28;45356;-65
2021/12/20 03:17:33;;;;;;;;;41.67;37.00;;;;;6.99;71.36;102187.88;4998612;28;45900;-65
2021/12/20 03:19:59;;;;;;;;;44.00;37.67;;;;;6.57;71.13;102117.09;4998444;28;45594;-65
2021/12/20 03:22:24;;;;;;;;;42.33;34.67;;;;;7.12;71.18;102195.13;4997417;28;45643;-65
2021/12/20 03:24:49;;;;;;;;;44.67;34.33;;;;;7.17;71.07;102177.22;4998866;28;45263;-65
2021/12/20 03:27:15;;;;;;;;;48.33;38.33;;;;;7.18;70.24;102176.25;4998386;28;45717;-64
2021/12/20 03:29:40;;;;;;;;;35.33;32.00;;;;;7.16;70.76;102175.50;4998655;28;45472;-64
2021/12/20 03:32:06;;;;;;;;;33.33;32.33;;;;;7.18;70.80;102192.13;4993663;28;45527;-66
2021/12/20 03:34:31;;;;;;;;;37.33;35.00;;;;;7.21;71.24;102184.06;4978948;28;45581;-67
2021/12/20 03:36:57;;;;;;;;;45.00;37.33;;;;;7.27;70.39;102171.31;4978791;28;46564;-64
2021/12/20 03:39:22;;;;;;;;;41.33;36.67;;;;;7.33;70.04;102165.66;4978553;28;45297;-66
2021/12/20 03:41:48;;;;;;;;;39.67;35.33;;;;;7.39;70.23;102161.81;4980500;28;45488;-64
2021/12/20 03:44:14;;;;;;;;;47.00;38.00;;;;;7.39;69.12;102151.22;4998376;28;45587;-65
2021/12/20 03:46:39;;;;;;;;;49.67;37.00;;;;;7.33;69.58;102147.16;4996876;28;47952;-65
2021/12/20 03:49:06;;;;;;;;;47.67;39.67;;;;;7.53;69.86;102180.38;4998175;28;45230;-64
2021/12/20 03:51:32;;;;;;;;;47.33;39.67;;;;;7.56;69.35;102176.72;4996973;28;45277;-65
2021/12/20 03:53:58;;;;;;;;;37.67;31.67;;;;;7.48;69.65;102171.88;4998472;28;45287;-65
2021/12/20 03:56:24;;;;;;;;;41.33;35.67;;;;;7.37;69.29;102173.41;4996120;28;45699;-65
2021/12/20 03:58:49;;;;;;;;;33.33;30.00;;;;;7.13;70.28;102184.47;4996603;28;45287;-64
2021/12/20 04:01:15;;;;;;;;;37.33;31.33;;;;;7.21;70.70;102174.31;4997991;28;45454;-64
2021/12/20 04:03:41;;;;;;;;;35.00;29.67;;;;;7.25;70.20;102175.00;4998334;28;45269;-66
2021/12/20 04:06:10;;;;;;;;;48.00;40.00;;;;;7.17;70.57;102180.69;4998027;28;45785;-65
2021/12/20 04:08:35;;;;;;;;;44.00;36.00;;;;;7.02;70.94;102165.72;4997753;28;45384;-65
2021/12/20 04:11:01;;;;;;;;;48.33;36.33;;;;;7.07;70.51;102153.09;4998007;28;45231;-65
2021/12/20 04:13:27;;;;;;;;;41.33;35.67;;;;;6.83;71.03;102118.31;4998403;28;45234;-65
2021/12/20 04:15:56;;;;;;;;;43.00;36.67;;;;;7.15;71.22;102165.88;4997890;28;45420;-64
2021/12/20 04:18:23;;;;;;;;;50.00;39.00;;;;;7.06;71.39;102176.97;4995638;28;45336;-65
2021/12/20 04:20:48;;;;;;;;;46.00;35.67;;;;;7.07;70.73;102187.47;4996500;28;45483;-64
2021/12/20 04:23:14;;;;;;;;;40.00;35.00;;;;;7.15;71.00;102181.72;4996472;28;45474;-66
2021/12/20 04:25:39;;;;;;;;;46.00;36.33;;;;;7.05;70.84;102148.84;4989417;28;45992;-65
2021/12/20 04:28:05;;;;;;;;;43.33;35.00;;;;;7.20;70.26;102172.59;4978083;28;45319;-66
2021/12/20 04:30:31;;;;;;;;;42.67;37.00;;;;;6.73;70.47;102098.59;4992999;28;45309;-64
2021/12/20 04:32:58;;;;;;;;;49.67;39.33;;;;;7.10;70.24;102165.28;4978165;28;45282;-65
2021/12/20 04:35:23;;;;;;;;;49.33;40.67;;;;;7.24;70.58;102190.00;4977796;28;45871;-65
2021/12/20 04:37:50;;;;;;;;;49.33;39.00;;;;;6.63;70.30;102060.44;4977687;28;45405;-64
2021/12/20 04:40:21;;;;;;;;;45.67;36.33;;;;;7.09;70.87;102142.41;4977969;28;45340;-65
2021/12/20 04:42:49;;;;;;;;;46.00;39.00;;;;;7.10;70.96;102157.34;4977938;28;45247;-65
2021/12/20 04:45:15;;;;;;;;;51.00;41.67;;;;;7.24;70.63;102183.88;4975979;28;46813;-65
2021/12/20 04:47:40;;;;;;;;;34.67;33.33;;;;;7.09;70.05;102147.72;4976074;28;45963;-65
2021/12/20 04:50:07;;;;;;;;;39.67;33.33;;;;;7.24;70.33;102173.28;4976370;28;45440;-64
2021/12/20 04:52:32;;;;;;;;;47.00;37.67;;;;;7.27;70.02;102178.41;4993160;28;45615;-65
2021/12/20 04:54:57;;;;;;;;;44.33;36.67;;;;;7.26;70.56;102163.47;4979358;28;46008;-65
2021/12/20 04:57:24;;;;;;;;;50.67;36.67;;;;;7.36;70.04;102177.88;4996402;28;45376;-64
2021/12/20 04:59:49;;;;;;;;;43.00;36.67;;;;;7.30;69.82;102172.94;4997214;28;45488;-65
2021/12/20 05:02:15;;;;;;;;;49.00;38.67;;;;;6.93;70.33;102105.41;4997365;28;45543;-64
2021/12/20 05:04:42;;;;;;;;;42.67;36.00;;;;;7.41;69.78;102175.81;4996968;28;46079;-64
2021/12/20 05:07:07;;;;;;;;;46.67;38.67;;;;;7.30;70.10;102157.91;4997126;28;45330;-64
2021/12/20 05:09:37;;;;;;;;;37.00;33.67;;;;;6.22;70.55;101997.56;4996946;28;45211;-65
2021/12/20 05:12:14;;;;;;;;;43.67;37.00;;;;;7.28;70.35;102188.03;4997222;28;45547;-64
2021/12/20 05:14:43;;;;;;;;;41.67;34.67;;;;;7.32;70.20;102184.28;4996793;28;47380;-67
2021/12/20 05:17:10;;;;;;;;;37.67;34.00;;;;;7.37;70.06;102179.56;4995386;28;45489;-65
2021/12/20 05:19:36;;;;;;;;;37.00;34.00;;;;;7.36;69.47;102163.78;4996937;28;45247;-64
2021/12/20 05:22:01;;;;;;;;;28.00;26.67;;;;;7.47;69.59;102191.34;4996828;28;45304;-64
2021/12/20 05:24:27;;;;;;;;;40.33;31.00;;;;;7.37;69.60;102174.28;4996422;28;45735;-65
2021/12/20 05:26:52;;;;;;;;;40.67;35.33;;;;;7.48;69.26;102193.03;4994773;28;45390;-65
2021/12/20 05:29:18;;;;;;;;;35.67;33.33;;;;;7.41;68.95;102175.81;4995532;28;45343;-64
2021/12/20 05:31:43;;;;;;;;;39.00;33.33;;;;;7.36;69.34;102188.44;4996913;28;45381;-66
2021/12/20 05:34:09;;;;;;;;;37.33;31.67;;;;;7.27;69.77;102191.63;4996221;28;45482;-65
2021/12/20 05:36:34;;;;;;;;;36.67;32.33;;;;;7.08;69.46;102168.00;4996213;28;45378;-66
2021/12/20 05:39:00;;;;;;;;;37.67;32.33;;;;;7.21;70.03;102186.69;4996399;28;45287;-64
2021/12/20 05:41:25;;;;;;;;;38.33;33.33;;;;;7.06;70.38;102159.31;4995417;28;45570;-65
2021/12/20 05:43:51;;;;;;;;;21.33;19.67;;;;;6.42;69.50;102045.78;4994776;28;47295;-65
2021/12/20 05:46:16;;;;;;;;;23.33;21.33;;;;;7.21;69.90;102181.41;4996070;28;45277;-66
2021/12/20 05:48:42;;;;;;;;;30.67;28.33;;;;;7.17;69.91;102187.78;4996233;28;45353;-63
2021/12/20 05:51:08;;;;;;;;;39.67;32.33;;;;;7.08;70.30;102175.09;4996620;28;45183;-63
2021/12/20 05:53:34;;;;;;;;;35.67;33.00;;;;;7.11;69.41;102164.34;4993934;28;47005;-64
2021/12/20 05:55:59;;;;;;;;;31.67;30.00;;;;;7.25;69.49;102194.38;4976371;28;45535;-64
2021/12/20 05:58:24;;;;;;;;;34.33;30.33;;;;;6.73;69.98;102117.13;4977067;28;45329;-65
2021/12/20 06:00:50;;;;;;;;;39.67;34.67;;;;;6.66;69.54;102118.41;4976899;28;45451;-65
2021/12/20 06:03:15;;;;;;;;;33.33;29.00;;;;;7.11;69.59;102182.84;4976552;28;45982;-66
2021/12/20 06:05:42;;;;;;;;;30.33;27.00;;;;;7.14;69.84;102188.81;4975496;28;46391;-66
2021/12/20 06:08:10;;;;;;;;;34.67;29.67;;;;;7.08;69.72;102177.75;4979079;28;45415;-65
2021/12/20 06:10:37;;;;;;;;;31.67;27.33;;;;;7.20;69.54;102184.97;4979961;28;45300;-65
2021/12/20 06:13:04;;;;;;;;;36.00;31.67;;;;;6.82;69.59;102100.75;4979862;28;45610;-65
2021/12/20 06:15:30;;;;;;;;;37.67;31.67;;;;;7.36;69.55;102199.03;4979597;28;45489;-65
2021/12/20 06:17:56;;;;;;;;;35.33;27.67;;;;;7.01;68.97;102149.00;4979665;28;45375;-64
2021/12/20 06:20:22;;;;;;;;;40.67;29.67;;;;;6.78;68.50;102130.06;4978942;28;45273;-65
2021/12/20 06:22:47;;;;;;;;;32.67;29.67;;;;;7.08;69.15;102198.91;4979606;28;46395;-64
2021/12/20 06:25:12;;;;;;;;;34.33;30.33;;;;;7.02;68.90;102173.66;4980015;28;45315;-65
2021/12/20 06:27:38;;;;;;;;;27.33;22.67;;;;;7.10;68.62;102194.38;4994927;28;45388;-65
2021/12/20 06:30:08;;;;;;;;;31.00;27.00;;;;;7.11;69.14;102189.00;4980037;28;45527;-65
2021/12/20 06:32:35;;;;;;;;;32.67;25.33;;;;;7.12;68.86;102197.78;4979332;28;46494;-65
2021/12/20 06:35:01;;;;;;;;;27.67;21.67;;;;;6.94;68.59;102191.72;4979533;28;45515;-65
2021/12/20 06:37:26;;;;;;;;;25.33;24.00;;;;;7.04;69.08;102181.50;4979807;28;45556;-66
2021/12/20 06:39:52;;;;;;;;;38.33;32.67;;;;;6.92;68.83;102197.09;4979882;28;45408;-65
2021/12/20 06:42:17;;;;;;;;;29.67;27.00;;;;;6.53;70.15;102165.78;4979291;28;45856;-63
2021/12/20 06:44:43;;;;;;;;;31.00;28.00;;;;;6.56;69.58;102188.53;4979571;28;45197;-65
2021/12/20 06:47:08;;;;;;;;;26.33;25.67;;;;;6.57;70.55;102203.44;4979109;28;45361;-65
2021/12/20 06:49:36;;;;;;;;;30.00;23.00;;;;;6.56;71.27;102217.59;4978221;28;45521;-65
2021/12/20 06:52:03;;;;;;;;;29.33;23.67;;;;;6.61;70.35;102215.59;4977644;28;47442;-67
2021/12/20 06:54:29;;;;;;;;;32.00;27.67;;;;;6.56;70.28;102185.88;4978973;28;45270;-65
2021/12/20 06:56:54;;;;;;;;;29.33;25.33;;;;;6.66;69.46;102187.13;4979029;28;45557;-65
2021/12/20 06:59:20;;;;;;;;;38.67;33.00;;;;;6.83;69.61;102225.84;4979230;28;45313;-68
2021/12/20 07:01:45;;;;;;;;;32.33;25.67;;;;;6.56;70.38;102217.59;4979000;28;46562;-65
2021/12/20 07:04:12;;;;;;;;;37.67;33.67;;;;;6.44;70.62;102199.78;4979217;28;45341;-65
2021/12/20 07:06:41;;;;;;;;;34.00;31.67;;;;;6.50;70.52;102210.00;4977956;28;45544;-65
2021/12/20 07:09:07;;;;;;;;;40.00;32.67;;;;;6.50;70.88;102218.78;4994086;28;45670;-66
2021/12/20 07:11:33;;;;;;;;;44.00;38.00;;;;;6.20;71.40;102191.34;4978740;28;45768;-66
2021/12/20 07:13:58;;;;;;;;;39.33;33.67;;;;;6.40;72.07;102218.41;4979045;28;45521;-65
2021/12/20 07:16:24;;;;;;;;;43.33;34.67;;;;;6.46;71.29;102213.75;4994229;28;45452;-65
2021/12/20 07:18:50;;;;;;;;;33.33;27.33;;;;;6.46;70.75;102195.25;4978522;28;45615;-66
2021/12/20 07:21:15;;;;;;;;;37.00;32.33;;;;;6.31;70.80;102150.22;4979063;28;46797;-65
2021/12/20 07:23:44;;;;;;;;;29.00;26.33;;;;;6.05;70.62;102101.47;4982903;28;45460;-65
2021/12/20 07:26:12;;;;;;;;;42.33;34.00;;;;;6.74;70.49;102203.41;4997349;28;45314;-65
2021/12/20 07:28:39;;;;;;;;;35.00;33.33;;;;;6.69;70.54;102218.66;4997393;28;45615;-64
2021/12/20 07:31:05;;;;;;;;;24.67;22.00;;;;;6.60;71.05;102208.56;4997965;28;47487;-65
2021/12/20 07:33:30;;;;;;;;;41.00;34.00;;;;;6.58;70.52;102219.22;4998332;28;45417;-66
2021/12/20 07:35:58;;;;;;;;;36.67;29.67;;;;;6.60;70.61;102209.41;4996781;28;45561;-65
2021/12/20 07:38:24;;;;;;;;;37.00;32.67;;;;;6.27;70.50;102158.41;4998460;28;45546;-66
2021/12/20 07:40:50;;;;;;;;;31.00;28.67;;;;;6.52;70.55;102216.06;4998224;28;45630;-64
2021/12/20 07:43:17;;;;;;;;;31.67;27.33;;;;;6.53;70.48;102201.91;4998055;28;45503;-65
2021/12/20 07:45:47;;;;;;;;;40.67;34.33;;;;;6.78;69.42;102227.88;4997859;28;45405;-65
2021/12/20 07:48:14;;;;;;;;;36.00;34.00;;;;;6.74;69.80;102215.75;4998134;28;45630;-65
2021/12/20 07:50:39;;;;;;;;;35.00;29.33;;;;;6.84;70.06;102223.13;4997886;28;46322;-66
2021/12/20 07:53:05;;;;;;;;;31.00;26.33;;;;;6.86;69.64;102215.94;4997879;28;45269;-64
2021/12/20 07:55:30;;;;;;;;;36.67;32.33;;;;;6.85;68.91;102216.88;4977721;28;45331;-66
2021/12/20 07:57:56;;;;;;;;;32.00;26.67;;;;;6.58;69.40;102163.72;4978275;28;45204;-65
2021/12/20 08:00:21;;;;;;;;;36.33;32.33;;;;;6.94;69.40;102228.75;4977815;28;45830;-65
2021/12/20 08:02:47;;;;;;;;;36.00;32.00;;;;;6.84;68.77;102212.53;4978689;28;45444;-67
2021/12/20 08:05:15;;;;;;;;;39.00;32.00;;;;;6.75;69.25;102213.03;4978121;28;45248;-64
2021/12/20 08:07:41;;;;;;;;;37.33;32.33;;;;;6.32;69.82;102125.53;4978288;28;45342;-66
2021/12/20 08:10:08;;;;;;;;;36.00;34.33;;;;;6.74;69.59;102227.19;4977786;28;45831;-65
2021/12/20 08:12:34;;;;;;;;;23.67;22.67;;;;;6.60;70.17;102213.84;4977842;28;45350;-65
2021/12/20 08:14:59;;;;;;;;;34.00;29.00;;;;;6.63;69.94;102219.00;4977846;28;45551;-64
2021/12/20 08:17:25;;;;;;;;;30.33;23.00;;;;;6.72;69.90;102224.63;4978267;28;45311;-65
2021/12/20 08:19:50;;;;;;;;;29.00;26.33;;;;;6.75;69.69;102226.25;4978025;28;45604;-65
2021/12/20 08:22:16;;;;;;;;;30.67;27.00;;;;;6.82;69.68;102229.44;4977981;28;45246;-64
2021/12/20 08:24:41;;;;;;;;;33.33;28.33;;;;;6.49;69.80;102173.97;4977717;28;46479;-65
2021/12/20 08:27:07;;;;;;;;;35.00;31.67;;;;;6.61;69.44;102215.59;4976531;28;45250;-66
2021/12/20 08:29:33;;;;;;;;;32.67;29.67;;;;;6.84;68.97;102243.41;4977496;28;45495;-65
2021/12/20 08:32:02;;;;;;;;;29.00;24.33;;;;;6.87;68.65;102244.09;4993734;28;45300;-67
2021/12/20 08:34:31;;;;;;;;;34.67;30.67;;;;;6.79;68.40;102226.94;4997517;28;45316;-67
2021/12/20 08:36:58;;;;;;;;;32.00;27.33;;;;;6.74;68.42;102221.03;4995976;28;45382;-65
2021/12/20 08:39:23;;;;;;;;;35.33;34.33;;;;;6.66;68.84;102248.75;4995911;28;46452;-66
2021/12/20 08:41:49;;;;;;;;;33.67;27.33;;;;;6.68;69.00;102251.31;4997282;28;45226;-66
2021/12/20 08:44:15;;;;;;;;;34.67;29.00;;;;;6.78;68.77;102249.84;4997243;28;45444;-65
2021/12/20 08:46:40;;;;;;;;;40.33;35.67;;;;;6.93;68.75;102259.63;4997121;28;45356;-66
2021/12/20 08:49:07;;;;;;;;;40.00;34.00;;;;;6.94;67.58;102258.66;4997085;28;46454;-66
2021/12/20 08:51:33;;;;;;;;;45.33;36.00;;;;;6.79;67.93;102240.13;4996979;28;45572;-65
2021/12/20 08:53:58;;;;;;;;;32.33;26.33;;;;;6.72;68.01;102237.84;4996717;28;45314;-66
2021/12/20 08:56:24;;;;;;;;;26.00;21.33;;;;;6.33;68.23;102195.91;4995909;28;45578;-65
2021/12/20 08:58:50;;;;;;;;;36.33;32.00;;;;;6.64;67.41;102231.28;4997255;28;46122;-66
2021/12/20 09:01:17;;;;;;;;;35.67;29.67;;;;;6.93;66.92;102269.34;4995057;28;45255;-66
2021/12/20 09:03:44;;;;;;;;;35.00;32.00;;;;;6.92;67.07;102251.75;4979254;28;45418;-66
2021/12/20 09:06:10;;;;;;;;;33.00;28.00;;;;;7.04;66.79;102274.06;4977579;28;45393;-69
2021/12/20 09:08:38;;;;;;;;;33.00;30.00;;;;;6.87;66.62;102259.09;4977025;28;46431;-66
2021/12/20 09:11:04;;;;;;;;;34.33;26.33;;;;;6.93;67.05;102277.25;4976705;28;45520;-66
2021/12/20 09:13:29;;;;;;;;;24.67;23.67;;;;;6.85;67.29;102274.19;4977042;28;45674;-64
2021/12/20 09:15:59;;;;;;;;;25.67;25.67;;;;;6.84;66.54;102276.00;4977392;28;45343;-66
2021/12/20 09:18:25;;;;;;;;;28.33;28.33;;;;;6.86;66.54;102260.91;4976908;28;46512;-65
2021/12/20 09:20:51;;;;;;;;;34.33;31.67;;;;;6.93;66.67;102261.41;4976930;28;45519;-66
2021/12/20 09:23:17;;;;;;;;;31.00;26.33;;;;;6.86;66.33;102247.69;4976708;28;45399;-66
2021/12/20 09:25:43;;;;;;;;;29.33;27.00;;;;;6.93;66.06;102258.75;4976875;28;45320;-65
2021/12/20 09:28:10;;;;;;;;;33.33;29.00;;;;;6.98;66.31;102260.22;4976782;28;46559;-65
2021/12/20 09:30:38;;;;;;;;;32.33;22.67;;;;;7.15;66.22;102258.44;4975256;28;45377;-65
2021/12/20 09:33:04;;;;;;;;;41.00;33.67;;;;;7.24;65.78;102271.16;4977301;28;45439;-66
2021/12/20 09:35:30;;;;;;;;;27.00;25.00;;;;;7.03;65.30;102237.97;4976848;28;45239;-65
2021/12/20 09:37:56;;;;;;;;;36.33;31.33;;;;;7.14;65.19;102246.16;4976410;28;46456;-65
2021/12/20 09:40:32;;;;;;;;;36.33;29.33;;;;;7.30;65.21;102278.75;4976737;28;45464;-65
2021/12/20 09:43:00;;;;;;;;;29.00;29.00;;;;;7.39;65.68;102278.22;4978419;28;45488;-64
2021/12/20 09:45:27;;;;;;;;;34.33;29.67;;;;;6.97;65.10;102234.72;4978423;28;45520;-66
2021/12/20 09:47:52;;;;;;;;;37.33;34.00;;;;;7.36;64.91;102278.41;4979661;28;47184;-64
2021/12/20 09:50:18;;;;;;;;;39.00;33.00;;;;;7.11;65.27;102225.16;4979288;28;45513;-65
2021/12/20 09:52:45;;;;;;;;;33.67;29.33;;;;;7.44;65.31;102281.50;4979963;28;45553;-65
2021/12/20 09:55:14;;;;;;;;;34.00;29.33;;;;;7.40;64.37;102274.63;4979713;28;45406;-67
2021/12/20 09:57:41;;;;;;;;;27.33;23.33;;;;;6.96;64.97;102200.41;4994342;28;47172;-65
2021/12/20 10:00:09;;;;;;;;;36.33;32.33;;;;;7.21;64.78;102242.25;4979478;28;45487;-65
2021/12/20 10:02:35;;;;;;;;;36.67;31.00;;;;;7.21;65.14;102274.00;4979175;28;45445;-64
2021/12/20 10:05:00;;;;;;;;;35.33;29.67;;;;;7.31;65.66;102285.75;4978747;28;45563;-67
2021/12/20 10:07:28;;;;;;;;;29.67;28.67;;;;;7.38;64.75;102288.91;4978690;28;45497;-66
2021/12/20 10:09:53;;;;;;;;;34.33;28.67;;;;;7.40;64.80;102282.56;4978637;28;45398;-66
2021/12/20 10:12:19;;;;;;;;;28.33;25.67;;;;;7.48;64.19;102277.72;4978714;28;45284;-67
2021/12/20 10:15:03;;;;;;;;;33.00;31.67;;;;;7.44;64.52;102289.44;4978733;28;45551;-65
2021/12/20 10:17:49;;;;;;;;;27.67;26.00;;;;;7.25;64.37;102249.06;4978390;28;47641;-66
2021/12/20 10:20:20;;;;;;;;;33.33;27.33;;;;;7.19;63.75;102239.66;4978494;28;45516;-64
2021/12/20 10:22:46;;;;;;;;;38.33;28.33;;;;;7.17;64.85;102261.84;4977186;28;45492;-66
2021/12/20 10:25:21;;;;;;;;;29.33;24.67;;;;;7.15;64.54;102269.00;4993671;28;45438;-65
2021/12/20 10:27:46;;;;;;;;;32.00;27.00;;;;;6.74;65.25;102211.31;4979111;28;46065;-65
2021/12/20 10:30:21;;;;;;;;;26.67;24.00;;;;;7.11;65.75;102280.69;4977924;28;45604;-66
2021/12/20 10:32:46;;;;;;;;;29.00;24.67;;;;;6.87;65.37;102217.66;4979951;28;45392;-65
2021/12/20 10:35:41;;;;;;;;;31.33;25.00;;;;;7.39;64.66;102275.56;4979930;28;45400;-65
2021/12/20 10:38:20;;;;;;;;;25.00;23.00;;;;;7.21;64.54;102251.03;4979185;28;45908;-66
2021/12/20 10:40:56;;;;;;;;;19.00;18.67;;;;;7.33;64.37;102268.84;4979112;28;45310;-65
2021/12/20 10:43:28;;;;;;;;;35.33;25.67;;;;;7.35;63.91;102260.81;4979008;28;45520;-66
2021/12/20 10:45:55;;;;;;;;;28.33;26.00;;;;;6.94;64.30;102186.44;4979078;28;45448;-65
2021/12/20 10:48:20;;;;;;;;;32.33;24.33;;;;;7.47;63.89;102273.38;4978901;28;46393;-66
2021/12/20 10:50:46;;;;;;;;;21.67;20.33;;;;;7.53;64.19;102267.72;4978832;28;45455;-65
2021/12/20 10:53:14;;;;;;;;;22.00;19.00;;;;;7.45;63.73;102267.31;4978746;28;45255;-65
2021/12/20 10:55:53;;;;;;;;;24.00;21.67;;;;;7.50;64.04;102257.31;4978790;28;45263;-65
2021/12/20 10:58:31;;;;;;;;;28.00;25.00;;;;;7.60;64.01;102261.13;4978803;28;45650;-66
2021/12/20 11:01:05;;;;;;;;;25.00;17.33;;;;;7.56;63.66;102256.09;4979118;28;45469;-68
2021/12/20 11:03:40;;;;;;;;;25.33;22.33;;;;;7.37;63.42;102247.50;4994383;28;45421;-66
2021/12/20 11:11:26;;;;;;;;;20.00;16.67;;;;;7.41;64.06;102244.63;4998429;28;45223;-65
2021/12/20 11:13:52;;;;;;;;;21.00;18.67;;;;;7.56;63.44;102254.31;4998249;28;45492;-64
2021/12/20 11:16:32;;;;;;;;;17.00;17.00;;;;;7.62;63.15;102248.69;4998541;28;45333;-66
2021/12/20 11:19:07;;;;;;;;;17.33;13.67;;;;;7.65;62.53;102247.66;4996628;28;45497;-66
2021/12/20 11:21:37;;;;;;;;;15.00;11.00;;;;;7.50;62.27;102238.78;4996256;28;45647;-66
2021/12/20 11:24:03;;;;;;;;;14.33;14.33;;;;;7.29;62.75;102226.78;4997987;28;45401;-66
2021/12/20 11:26:29;;;;;;;;;16.00;13.33;;;;;7.23;62.65;102240.38;4998443;28;45380;-65
2021/12/20 11:28:56;;;;;;;;;16.33;12.33;;;;;7.31;62.99;102232.84;4998109;28;46159;-66
2021/12/20 11:31:22;;;;;;;;;13.67;12.00;;;;;7.12;63.55;102232.16;4998271;28;45506;-66
2021/12/20 11:33:48;;;;;;;;;19.67;16.00;;;;;6.76;63.75;102171.59;4996671;28;45413;-66
2021/12/20 11:36:14;;;;;;;;;20.00;15.33;;;;;7.07;64.33;102223.63;4998031;28;45574;-67